sensor_id;sensor_type;location;lat;lon;timestamp;P1;durP1;ratioP1;P2;durP2;ratioP2
4325;SDS011;58429;49.826;10.880;2023-05-15T00:00:20;8.9;;;4.5;;
4325;SDS011;58429;49.826;10.880;2023-05-15T00:01:21;8.9;;;4.5;;
4325;SDS011;58429;49.826;10.880;2023-05-15T00:02:20;8.9;;;4.5;;
4325;SDS011;58429;49.826;10.880;2023-05-15T00:03:20;8.3;;;4.5;;
4325;SDS011;58429;49.826;10.880;2023-05-15T00:04:20;8.3;;;4.5;;
4325;SDS011;58429;49.826;10.880;2023-05-15T00:05:20;8.3;;;4.5;;
4325;SDS011;58429;49.826;10.880;2023-05-15T00:06:20;9.1;;;4.4;;
4325;SDS011;58429;49.826;10.880;2023-05-15T00:07:20;9.1;;;4.4;;
4325;SDS011;58429;49.826;10.880;2023-05-15T00:08:20;9.1;;;4.4;;
4325;SDS011;58429;49.826;10.880;2023-05-15T00:09:20;8.9;;;4.4;;
4325;SDS011;58429;49.826;10.880;2023-05-15T00:10:20;8.9;;;4.4;;
4325;SDS011;58429;49.826;10.880;2023-05-15T00:11:20;8.9;;;4.4;;
4325;SDS011;58429;49.826;10.880;2023-05-15T00:12:20;8.3;;;4.8;;
4325;SDS011;58429;49.826;10.880;2023-05-15T00:13:20;8.3;;;4.8;;
4325;SDS011;58429;49.826;10.880;2023-05-15T00:14:20;8.3;;;4.8;;
4325;SDS011;58429;49.826;10.880;2023-05-15T00:15:20;9.3;;;4.8;;
4325;SDS011;58429;49.826;10.880;2023-05-15T00:16:20;9.3;;;4.8;;
4325;SDS011;58429;49.826;10.880;2023-05-15T00:17:20;9.3;;;4.8;;
4325;SDS011;58429;49.826;10.880;2023-05-15T00:18:20;8.8;;;4.4;;
4325;SDS011;58429;49.826;10.880;2023-05-15T00:19:20;8.8;;;4.4;;
4325;SDS011;58429;49.826;10.880;2023-05-15T00:20:20;8.8;;;4.4;;
4325;SDS011;58429;49.826;10.880;2023-05-15T00:21:20;9.3;;;4.5;;
4325;SDS011;58429;49.826;10.880;2023-05-15T00:22:20;9.3;;;4.5;;
4325;SDS011;58429;49.826;10.880;2023-05-15T00:23:20;9.3;;;4.5;;
4325;SDS011;58429;49.826;10.880;2023-05-15T00:24:20;9.2;;;4.9;;
4325;SDS011;58429;49.826;10.880;2023-05-15T00:25:20;9.2;;;4.9;;
4325;SDS011;58429;49.826;10.880;2023-05-15T00:26:21;9.2;;;4.9;;
4325;SDS011;58429;49.826;10.880;2023-05-15T00:27:20;8.9;;;4.3;;
4325;SDS011;58429;49.826;10.880;2023-05-15T00:28:20;8.9;;;4.3;;
4325;SDS011;58429;49.826;10.880;2023-05-15T00:29:20;8.9;;;4.3;;
4325;SDS011;58429;49.826;10.880;2023-05-15T00:30:20;8.8;;;4.8;;
4325;SDS011;58429;49.826;10.880;2023-05-15T00:31:20;8.8;;;4.8;;
4325;SDS011;58429;49.826;10.880;2023-05-15T00:32:20;8.8;;;4.8;;
4325;SDS011;58429;49.826;10.880;2023-05-15T00:33:20;8.9;;;4.6;;
4325;SDS011;58429;49.826;10.880;2023-05-15T00:34:20;8.9;;;4.6;;
4325;SDS011;58429;49.826;10.880;2023-05-15T00:35:20;8.9;;;4.6;;
4325;SDS011;58429;49.826;10.880;2023-05-15T00:36:20;9.2;;;4.7;;
4325;SDS011;58429;49.826;10.880;2023-05-15T00:37:20;9.2;;;4.7;;
4325;SDS011;58429;49.826;10.880;2023-05-15T00:38:20;9.2;;;4.7;;
4325;SDS011;58429;49.826;10.880;2023-05-15T00:39:20;9.5;;;4.7;;
4325;SDS011;58429;49.826;10.880;2023-05-15T00:40:21;9.5;;;4.7;;
4325;SDS011;58429;49.826;10.880;2023-05-15T00:41:21;9.5;;;4.7;;
4325;SDS011;58429;49.826;10.880;2023-05-15T00:42:21;9.2;;;5.4;;
4325;SDS011;58429;49.826;10.880;2023-05-15T00:43:21;9.2;;;5.4;;
4325;SDS011;58429;49.826;10.880;2023-05-15T00:44:20;9.2;;;5.4;;
4325;SDS011;58429;49.826;10.880;2023-05-15T00:45:20;9.8;;;5.4;;
4325;SDS011;58429;49.826;10.880;2023-05-15T00:46:21;9.8;;;5.4;;
4325;SDS011;58429;49.826;10.880;2023-05-15T00:47:20;9.8;;;5.4;;
4325;SDS011;58429;49.826;10.880;2023-05-15T00:48:21;10.3;;;5.4;;
4325;SDS011;58429;49.826;10.880;2023-05-15T00:49:21;10.3;;;5.4;;
4325;SDS011;58429;49.826;10.880;2023-05-15T00:50:21;10.3;;;5.4;;
4325;SDS011;58429;49.826;10.880;2023-05-15T00:51:20;11.5;;;5.6;;
4325;SDS011;58429;49.826;10.880;2023-05-15T00:52:20;11.5;;;5.6;;
4325;SDS011;58429;49.826;10.880;2023-05-15T00:53:20;11.5;;;5.6;;
4325;SDS011;58429;49.826;10.880;2023-05-15T00:54:20;10.2;;;5.7;;
4325;SDS011;58429;49.826;10.880;2023-05-15T00:55:20;10.2;;;5.7;;
4325;SDS011;58429;49.826;10.880;2023-05-15T00:56:20;10.2;;;5.7;;
4325;SDS011;58429;49.826;10.880;2023-05-15T00:57:20;11.8;;;6.2;;
4325;SDS011;58429;49.826;10.880;2023-05-15T00:58:20;11.8;;;6.2;;
4325;SDS011;58429;49.826;10.880;2023-05-15T00:59:21;11.8;;;6.2;;
4325;SDS011;58429;49.826;10.880;2023-05-15T01:00:20;10.9;;;5.9;;
4325;SDS011;58429;49.826;10.880;2023-05-15T01:01:20;10.9;;;5.9;;
4325;SDS011;58429;49.826;10.880;2023-05-15T01:02:20;10.9;;;5.9;;
4325;SDS011;58429;49.826;10.880;2023-05-15T01:03:20;11.1;;;6.3;;
4325;SDS011;58429;49.826;10.880;2023-05-15T01:04:20;11.1;;;6.3;;
4325;SDS011;58429;49.826;10.880;2023-05-15T01:05:20;11.1;;;6.3;;
4325;SDS011;58429;49.826;10.880;2023-05-15T01:06:20;11.6;;;6.4;;
4325;SDS011;58429;49.826;10.880;2023-05-15T01:07:20;11.6;;;6.4;;
4325;SDS011;58429;49.826;10.880;2023-05-15T01:08:22;11.6;;;6.4;;
4325;SDS011;58429;49.826;10.880;2023-05-15T01:09:22;10.1;;;5.8;;
4325;SDS011;58429;49.826;10.880;2023-05-15T01:10:20;10.1;;;5.8;;
4325;SDS011;58429;49.826;10.880;2023-05-15T01:11:20;10.1;;;5.8;;
4325;SDS011;58429;49.826;10.880;2023-05-15T01:12:20;11.2;;;5.6;;
4325;SDS011;58429;49.826;10.880;2023-05-15T01:13:21;11.2;;;5.6;;
4325;SDS011;58429;49.826;10.880;2023-05-15T01:14:20;11.2;;;5.6;;
4325;SDS011;58429;49.826;10.880;2023-05-15T01:15:21;10.8;;;5.5;;
4325;SDS011;58429;49.826;10.880;2023-05-15T01:16:20;10.8;;;5.5;;
4325;SDS011;58429;49.826;10.880;2023-05-15T01:17:20;10.8;;;5.5;;
4325;SDS011;58429;49.826;10.880;2023-05-15T01:18:20;10.3;;;5.2;;
4325;SDS011;58429;49.826;10.880;2023-05-15T01:19:20;10.3;;;5.2;;
4325;SDS011;58429;49.826;10.880;2023-05-15T01:20:20;10.3;;;5.2;;
4325;SDS011;58429;49.826;10.880;2023-05-15T01:21:26;9.9;;;5.3;;
4325;SDS011;58429;49.826;10.880;2023-05-15T01:22:28;9.9;;;5.3;;
4325;SDS011;58429;49.826;10.880;2023-05-15T01:23:22;9.9;;;5.3;;
4325;SDS011;58429;49.826;10.880;2023-05-15T01:24:25;9.9;;;5.5;;
4325;SDS011;58429;49.826;10.880;2023-05-15T01:25:43;9.9;;;5.5;;
4325;SDS011;58429;49.826;10.880;2023-05-15T01:26:28;9.9;;;5.5;;
4325;SDS011;58429;49.826;10.880;2023-05-15T01:27:22;9.3;;;5.2;;
4325;SDS011;58429;49.826;10.880;2023-05-15T01:28:21;9.3;;;5.2;;
4325;SDS011;58429;49.826;10.880;2023-05-15T01:29:22;9.3;;;5.2;;
4325;SDS011;58429;49.826;10.880;2023-05-15T01:30:21;10.1;;;5.3;;
4325;SDS011;58429;49.826;10.880;2023-05-15T01:31:21;10.1;;;5.3;;
4325;SDS011;58429;49.826;10.880;2023-05-15T01:32:23;10.1;;;5.3;;
4325;SDS011;58429;49.826;10.880;2023-05-15T01:33:21;9.9;;;5.1;;
4325;SDS011;58429;49.826;10.880;2023-05-15T01:34:21;9.9;;;5.1;;
4325;SDS011;58429;49.826;10.880;2023-05-15T01:35:22;9.9;;;5.1;;
4325;SDS011;58429;49.826;10.880;2023-05-15T01:36:29;10.2;;;5.3;;
4325;SDS011;58429;49.826;10.880;2023-05-15T01:37:21;10.2;;;5.3;;
4325;SDS011;58429;49.826;10.880;2023-05-15T01:38:22;10.2;;;5.3;;
4325;SDS011;58429;49.826;10.880;2023-05-15T01:39:20;10.2;;;5.1;;
4325;SDS011;58429;49.826;10.880;2023-05-15T01:40:21;10.2;;;5.1;;
4325;SDS011;58429;49.826;10.880;2023-05-15T01:41:21;10.2;;;5.1;;
4325;SDS011;58429;49.826;10.880;2023-05-15T01:42:20;9.7;;;5.3;;
4325;SDS011;58429;49.826;10.880;2023-05-15T01:43:21;9.7;;;5.3;;
4325;SDS011;58429;49.826;10.880;2023-05-15T01:44:21;9.7;;;5.3;;
4325;SDS011;58429;49.826;10.880;2023-05-15T01:45:22;10;;;5.6;;
4325;SDS011;58429;49.826;10.880;2023-05-15T01:46:21;10;;;5.6;;
4325;SDS011;58429;49.826;10.880;2023-05-15T01:47:21;10;;;5.6;;
4325;SDS011;58429;49.826;10.880;2023-05-15T01:48:21;10;;;5.6;;
4325;SDS011;58429;49.826;10.880;2023-05-15T01:49:23;10.8;;;6.1;;
4325;SDS011;58429;49.826;10.880;2023-05-15T01:50:20;10.8;;;6.1;;
4325;SDS011;58429;49.826;10.880;2023-05-15T01:51:21;10.8;;;6.1;;
4325;SDS011;58429;49.826;10.880;2023-05-15T01:52:22;10.4;;;6;;
4325;SDS011;58429;49.826;10.880;2023-05-15T01:53:20;10.4;;;6;;
4325;SDS011;58429;49.826;10.880;2023-05-15T01:54:20;10.4;;;6;;
4325;SDS011;58429;49.826;10.880;2023-05-15T01:55:21;11.5;;;6.3;;
4325;SDS011;58429;49.826;10.880;2023-05-15T01:56:21;11.5;;;6.3;;
4325;SDS011;58429;49.826;10.880;2023-05-15T01:57:20;11.5;;;6.3;;
4325;SDS011;58429;49.826;10.880;2023-05-15T01:58:21;10.7;;;6.1;;
4325;SDS011;58429;49.826;10.880;2023-05-15T01:59:20;10.7;;;6.1;;
4325;SDS011;58429;49.826;10.880;2023-05-15T02:00:20;10.7;;;6.1;;
4325;SDS011;58429;49.826;10.880;2023-05-15T02:01:20;11.8;;;5.8;;
4325;SDS011;58429;49.826;10.880;2023-05-15T02:02:20;11.8;;;5.8;;
4325;SDS011;58429;49.826;10.880;2023-05-15T02:03:20;11.8;;;5.8;;
4325;SDS011;58429;49.826;10.880;2023-05-15T02:04:20;10.7;;;5.9;;
4325;SDS011;58429;49.826;10.880;2023-05-15T02:05:20;10.7;;;5.9;;
4325;SDS011;58429;49.826;10.880;2023-05-15T02:06:21;10.7;;;5.9;;
4325;SDS011;58429;49.826;10.880;2023-05-15T02:07:20;11.8;;;6.1;;
4325;SDS011;58429;49.826;10.880;2023-05-15T02:08:20;11.8;;;6.1;;
4325;SDS011;58429;49.826;10.880;2023-05-15T02:09:20;11.8;;;6.1;;
4325;SDS011;58429;49.826;10.880;2023-05-15T02:10:20;11.8;;;6.1;;
4325;SDS011;58429;49.826;10.880;2023-05-15T02:11:21;11.8;;;6.1;;
4325;SDS011;58429;49.826;10.880;2023-05-15T02:12:20;11.8;;;6.1;;
4325;SDS011;58429;49.826;10.880;2023-05-15T02:13:20;10.9;;;5.9;;
4325;SDS011;58429;49.826;10.880;2023-05-15T02:14:21;10.9;;;5.9;;
4325;SDS011;58429;49.826;10.880;2023-05-15T02:15:20;10.9;;;5.9;;
4325;SDS011;58429;49.826;10.880;2023-05-15T02:16:21;10.8;;;6;;
4325;SDS011;58429;49.826;10.880;2023-05-15T02:17:21;10.8;;;6;;
4325;SDS011;58429;49.826;10.880;2023-05-15T02:18:20;10.8;;;6;;
4325;SDS011;58429;49.826;10.880;2023-05-15T02:19:20;10.9;;;6;;
4325;SDS011;58429;49.826;10.880;2023-05-15T02:20:20;10.9;;;6;;
4325;SDS011;58429;49.826;10.880;2023-05-15T02:21:20;10.9;;;6;;
4325;SDS011;58429;49.826;10.880;2023-05-15T02:22:20;12.8;;;5.8;;
4325;SDS011;58429;49.826;10.880;2023-05-15T02:23:20;12.8;;;5.8;;
4325;SDS011;58429;49.826;10.880;2023-05-15T02:24:20;12.8;;;5.8;;
4325;SDS011;58429;49.826;10.880;2023-05-15T02:25:22;11.4;;;6.1;;
4325;SDS011;58429;49.826;10.880;2023-05-15T02:26:24;11.4;;;6.1;;
4325;SDS011;58429;49.826;10.880;2023-05-15T02:27:21;11.4;;;6.1;;
4325;SDS011;58429;49.826;10.880;2023-05-15T02:28:21;9.8;;;5.4;;
4325;SDS011;58429;49.826;10.880;2023-05-15T02:29:22;9.8;;;5.4;;
4325;SDS011;58429;49.826;10.880;2023-05-15T02:30:25;9.8;;;5.4;;
4325;SDS011;58429;49.826;10.880;2023-05-15T02:31:22;12.3;;;6.3;;
4325;SDS011;58429;49.826;10.880;2023-05-15T02:32:21;12.3;;;6.3;;
4325;SDS011;58429;49.826;10.880;2023-05-15T02:33:22;12.3;;;6.3;;
4325;SDS011;58429;49.826;10.880;2023-05-15T02:34:22;11.2;;;6.1;;
4325;SDS011;58429;49.826;10.880;2023-05-15T02:35:23;11.2;;;6.1;;
4325;SDS011;58429;49.826;10.880;2023-05-15T02:36:22;11.2;;;6.1;;
4325;SDS011;58429;49.826;10.880;2023-05-15T02:37:23;11.4;;;6.1;;
4325;SDS011;58429;49.826;10.880;2023-05-15T02:38:22;11.4;;;6.1;;
4325;SDS011;58429;49.826;10.880;2023-05-15T02:39:20;11.4;;;6.1;;
4325;SDS011;58429;49.826;10.880;2023-05-15T02:40:21;11.3;;;6.1;;
4325;SDS011;58429;49.826;10.880;2023-05-15T02:41:21;11.3;;;6.1;;
4325;SDS011;58429;49.826;10.880;2023-05-15T02:42:21;11.3;;;6.1;;
4325;SDS011;58429;49.826;10.880;2023-05-15T02:43:21;10.1;;;5.4;;
4325;SDS011;58429;49.826;10.880;2023-05-15T02:44:21;10.1;;;5.4;;
4325;SDS011;58429;49.826;10.880;2023-05-15T02:45:21;10.1;;;5.4;;
4325;SDS011;58429;49.826;10.880;2023-05-15T02:46:21;10;;;5.5;;
4325;SDS011;58429;49.826;10.880;2023-05-15T02:47:21;10;;;5.5;;
4325;SDS011;58429;49.826;10.880;2023-05-15T02:48:21;10;;;5.5;;
4325;SDS011;58429;49.826;10.880;2023-05-15T02:49:21;11.7;;;5.8;;
4325;SDS011;58429;49.826;10.880;2023-05-15T02:50:21;11.7;;;5.8;;
4325;SDS011;58429;49.826;10.880;2023-05-15T02:51:21;11.7;;;5.8;;
4325;SDS011;58429;49.826;10.880;2023-05-15T02:52:21;10.7;;;5.9;;
4325;SDS011;58429;49.826;10.880;2023-05-15T02:53:21;10.7;;;5.9;;
4325;SDS011;58429;49.826;10.880;2023-05-15T02:54:20;10.7;;;5.9;;
4325;SDS011;58429;49.826;10.880;2023-05-15T02:55:21;11.2;;;5.7;;
4325;SDS011;58429;49.826;10.880;2023-05-15T02:56:20;11.2;;;5.7;;
4325;SDS011;58429;49.826;10.880;2023-05-15T02:57:21;11.2;;;5.7;;
4325;SDS011;58429;49.826;10.880;2023-05-15T02:58:20;9.7;;;5.5;;
4325;SDS011;58429;49.826;10.880;2023-05-15T02:59:21;9.7;;;5.5;;
4325;SDS011;58429;49.826;10.880;2023-05-15T03:00:21;9.7;;;5.5;;
4325;SDS011;58429;49.826;10.880;2023-05-15T03:01:21;10.7;;;5.7;;
4325;SDS011;58429;49.826;10.880;2023-05-15T03:02:21;10.7;;;5.7;;
4325;SDS011;58429;49.826;10.880;2023-05-15T03:03:21;10.7;;;5.7;;
4325;SDS011;58429;49.826;10.880;2023-05-15T03:04:20;10.5;;;5.5;;
4325;SDS011;58429;49.826;10.880;2023-05-15T03:05:21;10.5;;;5.5;;
4325;SDS011;58429;49.826;10.880;2023-05-15T03:06:20;10.5;;;5.5;;
4325;SDS011;58429;49.826;10.880;2023-05-15T03:07:21;9.2;;;4.8;;
4325;SDS011;58429;49.826;10.880;2023-05-15T03:08:21;9.2;;;4.8;;
4325;SDS011;58429;49.826;10.880;2023-05-15T03:09:21;9.2;;;4.8;;
4325;SDS011;58429;49.826;10.880;2023-05-15T03:10:21;10.9;;;5.4;;
4325;SDS011;58429;49.826;10.880;2023-05-15T03:11:21;10.9;;;5.4;;
4325;SDS011;58429;49.826;10.880;2023-05-15T03:12:21;10.9;;;5.4;;
4325;SDS011;58429;49.826;10.880;2023-05-15T03:13:21;10.6;;;6;;
4325;SDS011;58429;49.826;10.880;2023-05-15T03:14:21;10.6;;;6;;
4325;SDS011;58429;49.826;10.880;2023-05-15T03:15:21;10.6;;;6;;
4325;SDS011;58429;49.826;10.880;2023-05-15T03:16:21;10.4;;;5.4;;
4325;SDS011;58429;49.826;10.880;2023-05-15T03:17:21;10.4;;;5.4;;
4325;SDS011;58429;49.826;10.880;2023-05-15T03:18:21;10.4;;;5.4;;
4325;SDS011;58429;49.826;10.880;2023-05-15T03:19:21;10.1;;;5.5;;
4325;SDS011;58429;49.826;10.880;2023-05-15T03:20:21;10.1;;;5.5;;
4325;SDS011;58429;49.826;10.880;2023-05-15T03:21:21;10.1;;;5.5;;
4325;SDS011;58429;49.826;10.880;2023-05-15T03:22:21;11.9;;;5.9;;
4325;SDS011;58429;49.826;10.880;2023-05-15T03:23:21;11.9;;;5.9;;
4325;SDS011;58429;49.826;10.880;2023-05-15T03:24:21;11.9;;;5.9;;
4325;SDS011;58429;49.826;10.880;2023-05-15T03:25:21;10.8;;;6;;
4325;SDS011;58429;49.826;10.880;2023-05-15T03:26:21;10.8;;;6;;
4325;SDS011;58429;49.826;10.880;2023-05-15T03:27:21;10.8;;;6;;
4325;SDS011;58429;49.826;10.880;2023-05-15T03:28:21;11.9;;;5.8;;
4325;SDS011;58429;49.826;10.880;2023-05-15T03:29:21;11.9;;;5.8;;
4325;SDS011;58429;49.826;10.880;2023-05-15T03:30:21;11.9;;;5.8;;
4325;SDS011;58429;49.826;10.880;2023-05-15T03:31:21;10.1;;;5.3;;
4325;SDS011;58429;49.826;10.880;2023-05-15T03:32:21;10.1;;;5.3;;
4325;SDS011;58429;49.826;10.880;2023-05-15T03:33:21;10.1;;;5.3;;
4325;SDS011;58429;49.826;10.880;2023-05-15T03:34:21;10.4;;;5.5;;
4325;SDS011;58429;49.826;10.880;2023-05-15T03:35:21;10.4;;;5.5;;
4325;SDS011;58429;49.826;10.880;2023-05-15T03:36:21;10.4;;;5.5;;
4325;SDS011;58429;49.826;10.880;2023-05-15T03:37:21;10;;;5;;
4325;SDS011;58429;49.826;10.880;2023-05-15T03:38:21;10;;;5;;
4325;SDS011;58429;49.826;10.880;2023-05-15T03:39:21;10;;;5;;
4325;SDS011;58429;49.826;10.880;2023-05-15T03:40:21;8.8;;;4.9;;
4325;SDS011;58429;49.826;10.880;2023-05-15T03:41:21;8.8;;;4.9;;
4325;SDS011;58429;49.826;10.880;2023-05-15T03:42:21;8.8;;;4.9;;
4325;SDS011;58429;49.826;10.880;2023-05-15T03:43:21;8.8;;;4.9;;
4325;SDS011;58429;49.826;10.880;2023-05-15T03:44:21;9.9;;;5.2;;
4325;SDS011;58429;49.826;10.880;2023-05-15T03:45:21;9.9;;;5.2;;
4325;SDS011;58429;49.826;10.880;2023-05-15T03:46:21;9.9;;;5.2;;
4325;SDS011;58429;49.826;10.880;2023-05-15T03:47:21;9.3;;;5;;
4325;SDS011;58429;49.826;10.880;2023-05-15T03:48:21;9.3;;;5;;
4325;SDS011;58429;49.826;10.880;2023-05-15T03:49:21;9.3;;;5;;
4325;SDS011;58429;49.826;10.880;2023-05-15T03:50:21;10.5;;;5.4;;
4325;SDS011;58429;49.826;10.880;2023-05-15T03:51:21;10.5;;;5.4;;
4325;SDS011;58429;49.826;10.880;2023-05-15T03:52:21;10.5;;;5.4;;
4325;SDS011;58429;49.826;10.880;2023-05-15T03:53:21;9.7;;;5.4;;
4325;SDS011;58429;49.826;10.880;2023-05-15T03:54:21;9.7;;;5.4;;
4325;SDS011;58429;49.826;10.880;2023-05-15T03:55:21;9.7;;;5.4;;
4325;SDS011;58429;49.826;10.880;2023-05-15T03:56:21;10.8;;;5.7;;
4325;SDS011;58429;49.826;10.880;2023-05-15T03:57:21;10.8;;;5.7;;
4325;SDS011;58429;49.826;10.880;2023-05-15T03:58:21;10.8;;;5.7;;
4325;SDS011;58429;49.826;10.880;2023-05-15T03:59:21;11.1;;;5.7;;
4325;SDS011;58429;49.826;10.880;2023-05-15T04:00:21;11.1;;;5.7;;
4325;SDS011;58429;49.826;10.880;2023-05-15T04:01:21;11.1;;;5.7;;
4325;SDS011;58429;49.826;10.880;2023-05-15T04:02:21;10.6;;;5.6;;
4325;SDS011;58429;49.826;10.880;2023-05-15T04:03:21;10.6;;;5.6;;
4325;SDS011;58429;49.826;10.880;2023-05-15T04:04:21;10.6;;;5.6;;
4325;SDS011;58429;49.826;10.880;2023-05-15T04:05:21;11.4;;;5.7;;
4325;SDS011;58429;49.826;10.880;2023-05-15T04:06:21;11.4;;;5.7;;
4325;SDS011;58429;49.826;10.880;2023-05-15T04:07:21;11.4;;;5.7;;
4325;SDS011;58429;49.826;10.880;2023-05-15T04:08:21;10.7;;;5.8;;
4325;SDS011;58429;49.826;10.880;2023-05-15T04:09:21;10.7;;;5.8;;
4325;SDS011;58429;49.826;10.880;2023-05-15T04:10:21;10.7;;;5.8;;
4325;SDS011;58429;49.826;10.880;2023-05-15T04:11:21;12.1;;;6.4;;
4325;SDS011;58429;49.826;10.880;2023-05-15T04:12:21;12.1;;;6.4;;
4325;SDS011;58429;49.826;10.880;2023-05-15T04:13:21;12.1;;;6.4;;
4325;SDS011;58429;49.826;10.880;2023-05-15T04:14:21;12.9;;;7;;
4325;SDS011;58429;49.826;10.880;2023-05-15T04:15:21;12.9;;;7;;
4325;SDS011;58429;49.826;10.880;2023-05-15T04:16:21;12.9;;;7;;
4325;SDS011;58429;49.826;10.880;2023-05-15T04:17:21;11.5;;;6.3;;
4325;SDS011;58429;49.826;10.880;2023-05-15T04:18:21;11.5;;;6.3;;
4325;SDS011;58429;49.826;10.880;2023-05-15T04:19:21;11.5;;;6.3;;
4325;SDS011;58429;49.826;10.880;2023-05-15T04:20:21;10.1;;;5.6;;
4325;SDS011;58429;49.826;10.880;2023-05-15T04:21:21;10.1;;;5.6;;
4325;SDS011;58429;49.826;10.880;2023-05-15T04:22:21;10.1;;;5.6;;
4325;SDS011;58429;49.826;10.880;2023-05-15T04:23:21;11.3;;;6.4;;
4325;SDS011;58429;49.826;10.880;2023-05-15T04:24:21;11.3;;;6.4;;
4325;SDS011;58429;49.826;10.880;2023-05-15T04:25:21;11.3;;;6.4;;
4325;SDS011;58429;49.826;10.880;2023-05-15T04:26:21;11.1;;;6.1;;
4325;SDS011;58429;49.826;10.880;2023-05-15T04:27:21;11.1;;;6.1;;
4325;SDS011;58429;49.826;10.880;2023-05-15T04:28:21;11.1;;;6.1;;
4325;SDS011;58429;49.826;10.880;2023-05-15T04:29:21;11.6;;;5.9;;
4325;SDS011;58429;49.826;10.880;2023-05-15T04:30:21;11.6;;;5.9;;
4325;SDS011;58429;49.826;10.880;2023-05-15T04:31:21;11.6;;;5.9;;
4325;SDS011;58429;49.826;10.880;2023-05-15T04:32:21;11.2;;;5.9;;
4325;SDS011;58429;49.826;10.880;2023-05-15T04:33:21;11.2;;;5.9;;
4325;SDS011;58429;49.826;10.880;2023-05-15T04:34:21;11.2;;;5.9;;
4325;SDS011;58429;49.826;10.880;2023-05-15T04:35:21;10.4;;;5.6;;
4325;SDS011;58429;49.826;10.880;2023-05-15T04:36:21;10.4;;;5.6;;
4325;SDS011;58429;49.826;10.880;2023-05-15T04:37:21;10.4;;;5.6;;
4325;SDS011;58429;49.826;10.880;2023-05-15T04:38:21;11.2;;;6.4;;
4325;SDS011;58429;49.826;10.880;2023-05-15T04:39:21;11.2;;;6.4;;
4325;SDS011;58429;49.826;10.880;2023-05-15T04:40:21;11.2;;;6.4;;
4325;SDS011;58429;49.826;10.880;2023-05-15T04:41:21;11.5;;;6.4;;
4325;SDS011;58429;49.826;10.880;2023-05-15T04:42:21;11.5;;;6.4;;
4325;SDS011;58429;49.826;10.880;2023-05-15T04:43:21;11.5;;;6.4;;
4325;SDS011;58429;49.826;10.880;2023-05-15T04:44:21;11.6;;;5.7;;
4325;SDS011;58429;49.826;10.880;2023-05-15T04:45:21;11.6;;;5.7;;
4325;SDS011;58429;49.826;10.880;2023-05-15T04:46:21;11.6;;;5.7;;
4325;SDS011;58429;49.826;10.880;2023-05-15T04:47:21;11;;;5.9;;
4325;SDS011;58429;49.826;10.880;2023-05-15T04:48:21;11;;;5.9;;
4325;SDS011;58429;49.826;10.880;2023-05-15T04:49:21;11;;;5.9;;
4325;SDS011;58429;49.826;10.880;2023-05-15T04:50:21;11;;;6.1;;
4325;SDS011;58429;49.826;10.880;2023-05-15T04:51:21;11;;;6.1;;
4325;SDS011;58429;49.826;10.880;2023-05-15T04:52:21;11;;;6.1;;
4325;SDS011;58429;49.826;10.880;2023-05-15T04:53:21;11.6;;;5.8;;
4325;SDS011;58429;49.826;10.880;2023-05-15T04:54:21;11.6;;;5.8;;
4325;SDS011;58429;49.826;10.880;2023-05-15T04:55:21;11.6;;;5.8;;
4325;SDS011;58429;49.826;10.880;2023-05-15T04:56:21;11.1;;;5.8;;
4325;SDS011;58429;49.826;10.880;2023-05-15T04:57:21;11.1;;;5.8;;
4325;SDS011;58429;49.826;10.880;2023-05-15T04:58:21;11.1;;;5.8;;
4325;SDS011;58429;49.826;10.880;2023-05-15T04:59:21;12.8;;;6.6;;
4325;SDS011;58429;49.826;10.880;2023-05-15T05:00:21;12.8;;;6.6;;
4325;SDS011;58429;49.826;10.880;2023-05-15T05:01:21;12.8;;;6.6;;
4325;SDS011;58429;49.826;10.880;2023-05-15T05:02:21;12.7;;;7.3;;
4325;SDS011;58429;49.826;10.880;2023-05-15T05:03:21;12.7;;;7.3;;
4325;SDS011;58429;49.826;10.880;2023-05-15T05:04:21;12.7;;;7.3;;
4325;SDS011;58429;49.826;10.880;2023-05-15T05:05:21;12.9;;;6.7;;
4325;SDS011;58429;49.826;10.880;2023-05-15T05:06:21;12.9;;;6.7;;
4325;SDS011;58429;49.826;10.880;2023-05-15T05:07:21;12.9;;;6.7;;
4325;SDS011;58429;49.826;10.880;2023-05-15T05:08:21;11.9;;;6.7;;
4325;SDS011;58429;49.826;10.880;2023-05-15T05:09:21;11.9;;;6.7;;
4325;SDS011;58429;49.826;10.880;2023-05-15T05:10:21;11.9;;;6.7;;
4325;SDS011;58429;49.826;10.880;2023-05-15T05:11:21;12;;;6.4;;
4325;SDS011;58429;49.826;10.880;2023-05-15T05:12:21;12;;;6.4;;
4325;SDS011;58429;49.826;10.880;2023-05-15T05:13:21;12;;;6.4;;
4325;SDS011;58429;49.826;10.880;2023-05-15T05:14:21;12;;;6.6;;
4325;SDS011;58429;49.826;10.880;2023-05-15T05:15:21;12;;;6.6;;
4325;SDS011;58429;49.826;10.880;2023-05-15T05:16:21;12;;;6.6;;
4325;SDS011;58429;49.826;10.880;2023-05-15T05:17:21;12.6;;;6.7;;
4325;SDS011;58429;49.826;10.880;2023-05-15T05:18:21;12.6;;;6.7;;
4325;SDS011;58429;49.826;10.880;2023-05-15T05:19:21;12.6;;;6.7;;
4325;SDS011;58429;49.826;10.880;2023-05-15T05:20:21;12.8;;;6.4;;
4325;SDS011;58429;49.826;10.880;2023-05-15T05:21:21;12.8;;;6.4;;
4325;SDS011;58429;49.826;10.880;2023-05-15T05:22:21;12.8;;;6.4;;
4325;SDS011;58429;49.826;10.880;2023-05-15T05:23:21;12;;;6.4;;
4325;SDS011;58429;49.826;10.880;2023-05-15T05:24:21;12;;;6.4;;
4325;SDS011;58429;49.826;10.880;2023-05-15T05:25:21;12;;;6.4;;
4325;SDS011;58429;49.826;10.880;2023-05-15T05:26:21;13.3;;;7.2;;
4325;SDS011;58429;49.826;10.880;2023-05-15T05:27:21;13.3;;;7.2;;
4325;SDS011;58429;49.826;10.880;2023-05-15T05:28:21;13.3;;;7.2;;
4325;SDS011;58429;49.826;10.880;2023-05-15T05:29:21;12.1;;;6.4;;
4325;SDS011;58429;49.826;10.880;2023-05-15T05:30:21;12.1;;;6.4;;
4325;SDS011;58429;49.826;10.880;2023-05-15T05:31:21;12.1;;;6.4;;
4325;SDS011;58429;49.826;10.880;2023-05-15T05:32:21;12.8;;;7;;
4325;SDS011;58429;49.826;10.880;2023-05-15T05:33:21;12.8;;;7;;
4325;SDS011;58429;49.826;10.880;2023-05-15T05:34:21;12.8;;;7;;
4325;SDS011;58429;49.826;10.880;2023-05-15T05:35:21;13.6;;;7;;
4325;SDS011;58429;49.826;10.880;2023-05-15T05:36:21;13.6;;;7;;
4325;SDS011;58429;49.826;10.880;2023-05-15T05:37:21;13.6;;;7;;
4325;SDS011;58429;49.826;10.880;2023-05-15T05:38:21;13.6;;;7;;
4325;SDS011;58429;49.826;10.880;2023-05-15T05:39:21;12.9;;;7.4;;
4325;SDS011;58429;49.826;10.880;2023-05-15T05:40:21;12.9;;;7.4;;
4325;SDS011;58429;49.826;10.880;2023-05-15T05:41:21;12.9;;;7.4;;
4325;SDS011;58429;49.826;10.880;2023-05-15T05:42:21;16.7;;;8.1;;
4325;SDS011;58429;49.826;10.880;2023-05-15T05:43:21;16.7;;;8.1;;
4325;SDS011;58429;49.826;10.880;2023-05-15T05:44:21;16.7;;;8.1;;
4325;SDS011;58429;49.826;10.880;2023-05-15T05:45:21;13.4;;;7.5;;
4325;SDS011;58429;49.826;10.880;2023-05-15T05:46:21;13.4;;;7.5;;
4325;SDS011;58429;49.826;10.880;2023-05-15T05:47:21;13.4;;;7.5;;
4325;SDS011;58429;49.826;10.880;2023-05-15T05:48:21;13.5;;;7.2;;
4325;SDS011;58429;49.826;10.880;2023-05-15T05:49:21;13.5;;;7.2;;
4325;SDS011;58429;49.826;10.880;2023-05-15T05:50:21;13.5;;;7.2;;
4325;SDS011;58429;49.826;10.880;2023-05-15T05:51:21;12;;;6.7;;
4325;SDS011;58429;49.826;10.880;2023-05-15T05:52:21;12;;;6.7;;
4325;SDS011;58429;49.826;10.880;2023-05-15T05:53:21;12;;;6.7;;
4325;SDS011;58429;49.826;10.880;2023-05-15T05:54:21;12.8;;;7;;
4325;SDS011;58429;49.826;10.880;2023-05-15T05:55:21;12.8;;;7;;
4325;SDS011;58429;49.826;10.880;2023-05-15T05:56:21;12.8;;;7;;
4325;SDS011;58429;49.826;10.880;2023-05-15T05:57:21;13.3;;;7.2;;
4325;SDS011;58429;49.826;10.880;2023-05-15T05:58:21;13.3;;;7.2;;
4325;SDS011;58429;49.826;10.880;2023-05-15T05:59:21;13.3;;;7.2;;
4325;SDS011;58429;49.826;10.880;2023-05-15T06:00:21;14.3;;;8.2;;
4325;SDS011;58429;49.826;10.880;2023-05-15T06:01:21;14.3;;;8.2;;
4325;SDS011;58429;49.826;10.880;2023-05-15T06:02:21;14.3;;;8.2;;
4325;SDS011;58429;49.826;10.880;2023-05-15T06:03:21;14.6;;;8.5;;
4325;SDS011;58429;49.826;10.880;2023-05-15T06:04:21;14.6;;;8.5;;
4325;SDS011;58429;49.826;10.880;2023-05-15T06:05:21;14.6;;;8.5;;
4325;SDS011;58429;49.826;10.880;2023-05-15T06:06:21;15;;;8.7;;
4325;SDS011;58429;49.826;10.880;2023-05-15T06:07:21;15;;;8.7;;
4325;SDS011;58429;49.826;10.880;2023-05-15T06:08:21;15;;;8.7;;
4325;SDS011;58429;49.826;10.880;2023-05-15T06:09:21;14;;;8.3;;
4325;SDS011;58429;49.826;10.880;2023-05-15T06:10:21;14;;;8.3;;